sensor_id;sensor_type;location;lat;lon;timestamp;temperature;humidity
33901;DHT22;20193;49.810;6.418;2022-09-21T00:00:29;9.30;95.40
33901;DHT22;20193;49.810;6.418;2022-09-21T00:02:56;9.30;95.40
33901;DHT22;20193;49.810;6.418;2022-09-21T00:05:23;9.20;95.40
33901;DHT22;20193;49.810;6.418;2022-09-21T00:07:48;9.20;95.40
33901;DHT22;20193;49.810;6.418;2022-09-21T00:10:14;9.20;95.50
33901;DHT22;20193;49.810;6.418;2022-09-21T00:12:41;9.10;95.50
33901;DHT22;20193;49.810;6.418;2022-09-21T00:15:08;9.10;95.50
33901;DHT22;20193;49.810;6.418;2022-09-21T00:17:35;9.00;95.50
33901;DHT22;20193;49.810;6.418;2022-09-21T00:20:02;9.00;95.60
33901;DHT22;20193;49.810;6.418;2022-09-21T00:22:33;9.00;95.60
33901;DHT22;20193;49.810;6.418;2022-09-21T00:24:59;8.90;95.60
33901;DHT22;20193;49.810;6.418;2022-09-21T00:27:27;8.90;95.70
33901;DHT22;20193;49.810;6.418;2022-09-21T00:30:01;8.90;95.70
33901;DHT22;20193;49.810;6.418;2022-09-21T00:32:32;8.80;95.70
33901;DHT22;20193;49.810;6.418;2022-09-21T00:34:58;8.80;95.80
33901;DHT22;20193;49.810;6.418;2022-09-21T00:37:25;8.80;95.80
33901;DHT22;20193;49.810;6.418;2022-09-21T00:39:52;8.70;95.80
33901;DHT22;20193;49.810;6.418;2022-09-21T00:42:29;8.70;95.80
33901;DHT22;20193;49.810;6.418;2022-09-21T00:44:55;8.60;95.80
33901;DHT22;20193;49.810;6.418;2022-09-21T00:47:29;8.60;95.90
33901;DHT22;20193;49.810;6.418;2022-09-21T00:49:56;8.60;96.00
33901;DHT22;20193;49.810;6.418;2022-09-21T00:52:25;8.60;96.00
33901;DHT22;20193;49.810;6.418;2022-09-21T00:54:55;8.60;96.10
33901;DHT22;20193;49.810;6.418;2022-09-21T00:57:23;8.60;96.20
33901;DHT22;20193;49.810;6.418;2022-09-21T00:59:54;8.60;96.30
33901;DHT22;20193;49.810;6.418;2022-09-21T01:02:20;8.60;96.30
33901;DHT22;20193;49.810;6.418;2022-09-21T01:04:46;8.60;96.50
33901;DHT22;20193;49.810;6.418;2022-09-21T01:07:22;8.60;96.60
33901;DHT22;20193;49.810;6.418;2022-09-21T01:09:51;8.60;96.60
33901;DHT22;20193;49.810;6.418;2022-09-21T01:15:48;8.60;96.70
33901;DHT22;20193;49.810;6.418;2022-09-21T01:18:34;8.60;96.80
33901;DHT22;20193;49.810;6.418;2022-09-21T01:24:00;8.60;96.90
33901;DHT22;20193;49.810;6.418;2022-09-21T01:29:33;8.70;97.10
33901;DHT22;20193;49.810;6.418;2022-09-21T01:37:40;8.70;97.30
33901;DHT22;20193;49.810;6.418;2022-09-21T01:40:12;8.70;97.40
33901;DHT22;20193;49.810;6.418;2022-09-21T01:42:39;8.80;97.50
33901;DHT22;20193;49.810;6.418;2022-09-21T01:45:07;8.80;97.50
33901;DHT22;20193;49.810;6.418;2022-09-21T01:47:38;8.90;97.70
33901;DHT22;20193;49.810;6.418;2022-09-21T01:50:07;8.90;97.70
33901;DHT22;20193;49.810;6.418;2022-09-21T01:52:38;9.00;97.90
33901;DHT22;20193;49.810;6.418;2022-09-21T01:55:20;9.00;98.00
33901;DHT22;20193;49.810;6.418;2022-09-21T02:00:34;9.10;98.20
33901;DHT22;20193;49.810;6.418;2022-09-21T02:03:15;9.30;98.30
33901;DHT22;20193;49.810;6.418;2022-09-21T02:05:44;9.20;98.40
33901;DHT22;20193;49.810;6.418;2022-09-21T02:08:10;9.30;98.50
33901;DHT22;20193;49.810;6.418;2022-09-21T02:10:41;9.30;98.50
33901;DHT22;20193;49.810;6.418;2022-09-21T02:13:08;9.30;98.60
33901;DHT22;20193;49.810;6.418;2022-09-21T02:16:00;9.40;98.60
33901;DHT22;20193;49.810;6.418;2022-09-21T02:19:08;9.40;98.70
33901;DHT22;20193;49.810;6.418;2022-09-21T02:35:14;9.40;98.90
33901;DHT22;20193;49.810;6.418;2022-09-21T02:37:49;9.50;99.00
33901;DHT22;20193;49.810;6.418;2022-09-21T02:40:29;9.50;99.00
33901;DHT22;20193;49.810;6.418;2022-09-21T02:43:05;9.50;99.10
33901;DHT22;20193;49.810;6.418;2022-09-21T02:45:37;9.50;99.10
33901;DHT22;20193;49.810;6.418;2022-09-21T02:48:13;9.50;99.20
33901;DHT22;20193;49.810;6.418;2022-09-21T02:51:03;9.50;99.20
33901;DHT22;20193;49.810;6.418;2022-09-21T02:53:33;9.60;99.30
33901;DHT22;20193;49.810;6.418;2022-09-21T02:56:02;9.60;99.30
33901;DHT22;20193;49.810;6.418;2022-09-21T02:58:35;9.60;99.30
33901;DHT22;20193;49.810;6.418;2022-09-21T03:01:02;9.60;99.30
33901;DHT22;20193;49.810;6.418;2022-09-21T03:03:33;9.50;99.20
33901;DHT22;20193;49.810;6.418;2022-09-21T03:05:59;9.50;99.20
33901;DHT22;20193;49.810;6.418;2022-09-21T03:08:27;9.50;99.20
33901;DHT22;20193;49.810;6.418;2022-09-21T03:10:52;9.40;99.20
33901;DHT22;20193;49.810;6.418;2022-09-21T03:13:18;9.40;99.20
33901;DHT22;20193;49.810;6.418;2022-09-21T03:15:45;9.40;99.30
33901;DHT22;20193;49.810;6.418;2022-09-21T03:18:11;9.30;99.20
33901;DHT22;20193;49.810;6.418;2022-09-21T03:20:39;9.30;99.30
33901;DHT22;20193;49.810;6.418;2022-09-21T03:23:06;9.30;99.30
33901;DHT22;20193;49.810;6.418;2022-09-21T03:25:32;9.30;99.40
33901;DHT22;20193;49.810;6.418;2022-09-21T03:27:58;9.30;99.40
33901;DHT22;20193;49.810;6.418;2022-09-21T03:30:24;9.20;99.40
33901;DHT22;20193;49.810;6.418;2022-09-21T03:32:54;9.20;99.40
33901;DHT22;20193;49.810;6.418;2022-09-21T03:35:22;9.20;99.50
33901;DHT22;20193;49.810;6.418;2022-09-21T03:37:48;9.20;99.50
33901;DHT22;20193;49.810;6.418;2022-09-21T03:40:15;9.20;99.50
33901;DHT22;20193;49.810;6.418;2022-09-21T03:42:40;9.20;99.50
33901;DHT22;20193;49.810;6.418;2022-09-21T03:45:08;9.20;99.50
33901;DHT22;20193;49.810;6.418;2022-09-21T03:47:34;9.30;99.60
33901;DHT22;20193;49.810;6.418;2022-09-21T03:49:59;9.30;99.60
33901;DHT22;20193;49.810;6.418;2022-09-21T03:52:25;9.30;99.60
33901;DHT22;20193;49.810;6.418;2022-09-21T03:54:51;9.30;99.60
33901;DHT22;20193;49.810;6.418;2022-09-21T03:57:17;9.30;99.60
33901;DHT22;20193;49.810;6.418;2022-09-21T03:59:42;9.30;99.60
33901;DHT22;20193;49.810;6.418;2022-09-21T04:02:08;9.30;99.60
33901;DHT22;20193;49.810;6.418;2022-09-21T04:04:33;9.30;99.60
33901;DHT22;20193;49.810;6.418;2022-09-21T04:06:59;9.30;99.60
33901;DHT22;20193;49.810;6.418;2022-09-21T04:09:25;9.30;99.60
33901;DHT22;20193;49.810;6.418;2022-09-21T04:11:51;9.30;99.60
33901;DHT22;20193;49.810;6.418;2022-09-21T04:14:18;9.30;99.60
33901;DHT22;20193;49.810;6.418;2022-09-21T04:16:44;9.30;99.60
33901;DHT22;20193;49.810;6.418;2022-09-21T04:19:10;9.30;99.60
33901;DHT22;20193;49.810;6.418;2022-09-21T04:21:36;9.20;99.60
33901;DHT22;20193;49.810;6.418;2022-09-21T04:24:02;9.30;99.60
33901;DHT22;20193;49.810;6.418;2022-09-21T04:26:30;9.30;99.70
33901;DHT22;20193;49.810;6.418;2022-09-21T04:28:57;9.30;99.70
33901;DHT22;20193;49.810;6.418;2022-09-21T04:31:24;9.20;99.60
33901;DHT22;20193;49.810;6.418;2022-09-21T04:33:51;9.20;99.60
33901;DHT22;20193;49.810;6.418;2022-09-21T04:36:18;9.20;99.60
33901;DHT22;20193;49.810;6.418;2022-09-21T04:38:44;9.20;99.60
33901;DHT22;20193;49.810;6.418;2022-09-21T04:41:11;9.20;99.70
33901;DHT22;20193;49.810;6.418;2022-09-21T04:43:37;9.20;99.70
33901;DHT22;20193;49.810;6.418;2022-09-21T04:46:11;9.20;99.80
33901;DHT22;20193;49.810;6.418;2022-09-21T04:48:37;9.20;99.70
33901;DHT22;20193;49.810;6.418;2022-09-21T04:51:03;9.20;99.80
33901;DHT22;20193;49.810;6.418;2022-09-21T04:53:30;9.20;99.70
33901;DHT22;20193;49.810;6.418;2022-09-21T04:55:56;9.10;99.70
33901;DHT22;20193;49.810;6.418;2022-09-21T04:58:22;9.10;99.70
33901;DHT22;20193;49.810;6.418;2022-09-21T05:00:49;9.10;99.70
33901;DHT22;20193;49.810;6.418;2022-09-21T05:03:16;9.10;99.70
33901;DHT22;20193;49.810;6.418;2022-09-21T05:05:53;9.10;99.60
33901;DHT22;20193;49.810;6.418;2022-09-21T05:08:19;9.00;99.60
33901;DHT22;20193;49.810;6.418;2022-09-21T05:11:10;9.00;99.60
33901;DHT22;20193;49.810;6.418;2022-09-21T05:13:40;8.90;99.60
33901;DHT22;20193;49.810;6.418;2022-09-21T05:16:06;8.90;99.60
33901;DHT22;20193;49.810;6.418;2022-09-21T05:18:32;8.80;99.60
33901;DHT22;20193;49.810;6.418;2022-09-21T05:20:59;8.80;99.60
33901;DHT22;20193;49.810;6.418;2022-09-21T05:23:26;8.80;99.60
33901;DHT22;20193;49.810;6.418;2022-09-21T05:25:51;8.70;99.50
33901;DHT22;20193;49.810;6.418;2022-09-21T05:28:18;8.70;99.50
33901;DHT22;20193;49.810;6.418;2022-09-21T05:30:47;8.70;99.50
33901;DHT22;20193;49.810;6.418;2022-09-21T05:33:18;8.70;99.50
33901;DHT22;20193;49.810;6.418;2022-09-21T05:38:35;8.70;99.70
33901;DHT22;20193;49.810;6.418;2022-09-21T05:41:01;8.70;99.70
33901;DHT22;20193;49.810;6.418;2022-09-21T05:43:28;8.70;99.70
33901;DHT22;20193;49.810;6.418;2022-09-21T05:46:02;8.70;99.70
33901;DHT22;20193;49.810;6.418;2022-09-21T05:48:50;8.70;99.70
33901;DHT22;20193;49.810;6.418;2022-09-21T05:59:56;8.60;99.60
33901;DHT22;20193;49.810;6.418;2022-09-21T06:02:48;8.60;99.60
33901;DHT22;20193;49.810;6.418;2022-09-21T06:05:18;8.70;99.70
33901;DHT22;20193;49.810;6.418;2022-09-21T06:07:44;8.70;99.70
33901;DHT22;20193;49.810;6.418;2022-09-21T06:10:12;8.70;99.70
33901;DHT22;20193;49.810;6.418;2022-09-21T06:12:38;8.70;99.80
33901;DHT22;20193;49.810;6.418;2022-09-21T06:15:05;8.70;99.80
33901;DHT22;20193;49.810;6.418;2022-09-21T06:17:32;8.70;99.70
33901;DHT22;20193;49.810;6.418;2022-09-21T06:19:57;8.80;99.80
33901;DHT22;20193;49.810;6.418;2022-09-21T06:22:23;8.80;99.80
33901;DHT22;20193;49.810;6.418;2022-09-21T06:24:49;8.80;99.70
33901;DHT22;20193;49.810;6.418;2022-09-21T06:27:14;8.90;99.70
33901;DHT22;20193;49.810;6.418;2022-09-21T06:29:40;8.80;99.60
33901;DHT22;20193;49.810;6.418;2022-09-21T06:32:06;8.90;99.70
33901;DHT22;20193;49.810;6.418;2022-09-21T06:34:31;8.90;99.70
33901;DHT22;20193;49.810;6.418;2022-09-21T06:36:57;8.90;99.70
33901;DHT22;20193;49.810;6.418;2022-09-21T06:39:22;9.00;99.80
33901;DHT22;20193;49.810;6.418;2022-09-21T06:41:48;9.00;99.80
33901;DHT22;20193;49.810;6.418;2022-09-21T06:44:13;9.10;99.90
33901;DHT22;20193;49.810;6.418;2022-09-21T06:46:39;9.10;99.90
33901;DHT22;20193;49.810;6.418;2022-09-21T06:49:05;9.20;99.90
33901;DHT22;20193;49.810;6.418;2022-09-21T06:51:30;9.20;99.90
33901;DHT22;20193;49.810;6.418;2022-09-21T06:53:57;9.30;99.90
33901;DHT22;20193;49.810;6.418;2022-09-21T06:56:24;9.40;99.90
33901;DHT22;20193;49.810;6.418;2022-09-21T06:58:51;9.40;99.90
33901;DHT22;20193;49.810;6.418;2022-09-21T07:01:17;9.50;99.90
33901;DHT22;20193;49.810;6.418;2022-09-21T07:03:43;9.60;99.90
33901;DHT22;20193;49.810;6.418;2022-09-21T07:06:10;9.60;99.80
33901;DHT22;20193;49.810;6.418;2022-09-21T07:08:38;9.70;99.80
33901;DHT22;20193;49.810;6.418;2022-09-21T07:11:04;9.80;99.80
33901;DHT22;20193;49.810;6.418;2022-09-21T07:13:30;9.80;99.80
33901;DHT22;20193;49.810;6.418;2022-09-21T07:15:56;10.00;99.30
33901;DHT22;20193;49.810;6.418;2022-09-21T07:18:22;10.00;99.10
33901;DHT22;20193;49.810;6.418;2022-09-21T07:20:48;10.00;99.00
33901;DHT22;20193;49.810;6.418;2022-09-21T07:23:15;10.00;99.10
33901;DHT22;20193;49.810;6.418;2022-09-21T07:25:42;10.10;99.00
33901;DHT22;20193;49.810;6.418;2022-09-21T07:28:08;10.20;99.00
33901;DHT22;20193;49.810;6.418;2022-09-21T07:30:36;10.20;98.90
33901;DHT22;20193;49.810;6.418;2022-09-21T07:33:02;10.30;98.90
33901;DHT22;20193;49.810;6.418;2022-09-21T07:35:27;10.40;98.90
33901;DHT22;20193;49.810;6.418;2022-09-21T07:37:53;10.50;98.90
33901;DHT22;20193;49.810;6.418;2022-09-21T07:40:21;10.60;98.90
33901;DHT22;20193;49.810;6.418;2022-09-21T07:42:46;10.70;98.80
33901;DHT22;20193;49.810;6.418;2022-09-21T07:45:12;10.80;98.80
33901;DHT22;20193;49.810;6.418;2022-09-21T07:47:37;10.90;98.70
33901;DHT22;20193;49.810;6.418;2022-09-21T07:50:03;10.90;98.60
33901;DHT22;20193;49.810;6.418;2022-09-21T07:52:29;11.00;98.30
33901;DHT22;20193;49.810;6.418;2022-09-21T07:54:54;11.00;98.20
33901;DHT22;20193;49.810;6.418;2022-09-21T07:57:20;11.10;98.00
33901;DHT22;20193;49.810;6.418;2022-09-21T08:00:04;11.10;97.90
33901;DHT22;20193;49.810;6.418;2022-09-21T08:02:30;11.30;97.90
33901;DHT22;20193;49.810;6.418;2022-09-21T08:04:56;11.30;97.80
33901;DHT22;20193;49.810;6.418;2022-09-21T08:07:21;11.40;97.90
33901;DHT22;20193;49.810;6.418;2022-09-21T08:09:47;11.50;97.90
33901;DHT22;20193;49.810;6.418;2022-09-21T08:12:15;11.80;97.90
33901;DHT22;20193;49.810;6.418;2022-09-21T08:14:43;11.90;97.90
33901;DHT22;20193;49.810;6.418;2022-09-21T08:17:09;12.00;97.80
33901;DHT22;20193;49.810;6.418;2022-09-21T08:19:35;12.10;97.70
33901;DHT22;20193;49.810;6.418;2022-09-21T08:22:01;12.30;97.60
33901;DHT22;20193;49.810;6.418;2022-09-21T08:24:27;12.50;97.80
33901;DHT22;20193;49.810;6.418;2022-09-21T08:26:53;12.60;97.20
33901;DHT22;20193;49.810;6.418;2022-09-21T08:29:20;12.80;97.00
33901;DHT22;20193;49.810;6.418;2022-09-21T08:31:45;13.00;96.80
33901;DHT22;20193;49.810;6.418;2022-09-21T08:34:11;13.20;96.70
33901;DHT22;20193;49.810;6.418;2022-09-21T08:36:37;13.40;96.40
33901;DHT22;20193;49.810;6.418;2022-09-21T08:39:06;13.50;96.20
33901;DHT22;20193;49.810;6.418;2022-09-21T08:41:51;13.70;95.90
33901;DHT22;20193;49.810;6.418;2022-09-21T08:44:58;13.80;95.30
33901;DHT22;20193;49.810;6.418;2022-09-21T08:47:51;14.00;95.30
33901;DHT22;20193;49.810;6.418;2022-09-21T08:52:50;14.30;94.70
33901;DHT22;20193;49.810;6.418;2022-09-21T08:55:18;14.30;94.50
33901;DHT22;20193;49.810;6.418;2022-09-21T08:57:45;14.50;94.50
33901;DHT22;20193;49.810;6.418;2022-09-21T09:00:15;14.60;94.60
33901;DHT22;20193;49.810;6.418;2022-09-21T09:03:07;14.80;94.50
33901;DHT22;20193;49.810;6.418;2022-09-21T09:19:57;15.90;93.10
33901;DHT22;20193;49.810;6.418;2022-09-21T09:22:32;16.10;92.70
33901;DHT22;20193;49.810;6.418;2022-09-21T09:25:04;16.10;92.40
33901;DHT22;20193;49.810;6.418;2022-09-21T09:27:40;16.20;91.80
33901;DHT22;20193;49.810;6.418;2022-09-21T09:30:24;16.30;91.80
33901;DHT22;20193;49.810;6.418;2022-09-21T09:33:11;16.30;91.40
33901;DHT22;20193;49.810;6.418;2022-09-21T09:38:37;16.50;91.50
33901;DHT22;20193;49.810;6.418;2022-09-21T09:44:09;16.70;90.80
33901;DHT22;20193;49.810;6.418;2022-09-21T09:52:19;16.90;90.60
33901;DHT22;20193;49.810;6.418;2022-09-21T09:54:45;16.90;90.40
33901;DHT22;20193;49.810;6.418;2022-09-21T09:57:11;17.00;90.30
33901;DHT22;20193;49.810;6.418;2022-09-21T09:59:49;17.00;90.00
33901;DHT22;20193;49.810;6.418;2022-09-21T10:02:24;17.00;89.10
33901;DHT22;20193;49.810;6.418;2022-09-21T10:07:19;17.00;86.80
33901;DHT22;20193;49.810;6.418;2022-09-21T10:09:45;17.00;85.80
33901;DHT22;20193;49.810;6.418;2022-09-21T10:12:37;17.10;84.50
33901;DHT22;20193;49.810;6.418;2022-09-21T10:15:09;17.10;84.20
33901;DHT22;20193;49.810;6.418;2022-09-21T10:17:36;17.10;84.00
33901;DHT22;20193;49.810;6.418;2022-09-21T10:20:03;17.10;83.70
33901;DHT22;20193;49.810;6.418;2022-09-21T10:22:29;17.20;82.70
33901;DHT22;20193;49.810;6.418;2022-09-21T10:24:55;17.20;82.90
33901;DHT22;20193;49.810;6.418;2022-09-21T10:27:28;17.20;81.70
33901;DHT22;20193;49.810;6.418;2022-09-21T10:29:57;17.20;80.30
33901;DHT22;20193;49.810;6.418;2022-09-21T10:32:27;17.20;80.10
33901;DHT22;20193;49.810;6.418;2022-09-21T10:37:39;17.20;78.60
33901;DHT22;20193;49.810;6.418;2022-09-21T10:40:23;17.20;78.20
33901;DHT22;20193;49.810;6.418;2022-09-21T10:42:51;17.10;77.60
33901;DHT22;20193;49.810;6.418;2022-09-21T10:45:20;17.10;77.80
33901;DHT22;20193;49.810;6.418;2022-09-21T10:47:53;17.20;77.40
33901;DHT22;20193;49.810;6.418;2022-09-21T10:50:23;17.20;77.00
33901;DHT22;20193;49.810;6.418;2022-09-21T10:52:53;17.20;77.30
33901;DHT22;20193;49.810;6.418;2022-09-21T10:55:22;17.20;77.50
33901;DHT22;20193;49.810;6.418;2022-09-21T10:57:49;17.20;76.50
33901;DHT22;20193;49.810;6.418;2022-09-21T11:02:55;17.30;76.80
33901;DHT22;20193;49.810;6.418;2022-09-21T11:05:26;17.30;76.20
33901;DHT22;20193;49.810;6.418;2022-09-21T11:07:54;17.40;75.80
33901;DHT22;20193;49.810;6.418;2022-09-21T11:15:54;17.60;74.90
33901;DHT22;20193;49.810;6.418;2022-09-21T11:21:31;17.70;74.00
33901;DHT22;20193;49.810;6.418;2022-09-21T11:26:55;17.90;73.50
33901;DHT22;20193;49.810;6.418;2022-09-21T11:29:28;17.90;72.60
33901;DHT22;20193;49.810;6.418;2022-09-21T11:40:06;17.90;71.70
33901;DHT22;20193;49.810;6.418;2022-09-21T11:45:32;17.70;69.60
33901;DHT22;20193;49.810;6.418;2022-09-21T11:58:45;17.50;70.90
33901;DHT22;20193;49.810;6.418;2022-09-21T12:14:56;17.30;70.50
33901;DHT22;20193;49.810;6.418;2022-09-21T12:17:42;17.30;70.70
33901;DHT22;20193;49.810;6.418;2022-09-21T12:20:27;17.40;70.90
33901;DHT22;20193;49.810;6.418;2022-09-21T12:23:02;17.40;70.70
33901;DHT22;20193;49.810;6.418;2022-09-21T12:25:34;17.40;70.60
33901;DHT22;20193;49.810;6.418;2022-09-21T12:30:56;17.60;70.60
33901;DHT22;20193;49.810;6.418;2022-09-21T12:36:19;17.70;70.90
33901;DHT22;20193;49.810;6.418;2022-09-21T12:38:57;17.60;68.90
33901;DHT22;20193;49.810;6.418;2022-09-21T12:41:41;17.70;69.00
33901;DHT22;20193;49.810;6.418;2022-09-21T12:44:31;17.70;69.70
33901;DHT22;20193;49.810;6.418;2022-09-21T12:47:10;17.70;67.10
33901;DHT22;20193;49.810;6.418;2022-09-21T12:49:46;17.70;66.40
33901;DHT22;20193;49.810;6.418;2022-09-21T12:52:21;17.70;65.80
33901;DHT22;20193;49.810;6.418;2022-09-21T12:57:46;17.80;66.40
33901;DHT22;20193;49.810;6.418;2022-09-21T13:00:18;17.80;65.20
33901;DHT22;20193;49.810;6.418;2022-09-21T13:03:00;17.80;63.50
33901;DHT22;20193;49.810;6.418;2022-09-21T13:08:28;17.90;62.90
33901;DHT22;20193;49.810;6.418;2022-09-21T13:11:01;18.00;62.90
33901;DHT22;20193;49.810;6.418;2022-09-21T13:15:55;18.20;62.00
33901;DHT22;20193;49.810;6.418;2022-09-21T13:18:33;18.10;61.00
33901;DHT22;20193;49.810;6.418;2022-09-21T13:21:01;18.20;60.50
33901;DHT22;20193;49.810;6.418;2022-09-21T13:23:39;18.20;60.70
33901;DHT22;20193;49.810;6.418;2022-09-21T13:26:08;18.30;60.70
33901;DHT22;20193;49.810;6.418;2022-09-21T13:29:02;18.20;60.10
33901;DHT22;20193;49.810;6.418;2022-09-21T13:31:39;18.20;60.10
33901;DHT22;20193;49.810;6.418;2022-09-21T13:36:41;18.30;61.80
33901;DHT22;20193;49.810;6.418;2022-09-21T13:41:34;18.40;60.70
33901;DHT22;20193;49.810;6.418;2022-09-21T13:59:45;18.80;59.10
33901;DHT22;20193;49.810;6.418;2022-09-21T14:11:08;18.90;58.30
33901;DHT22;20193;49.810;6.418;2022-09-21T14:27:24;18.60;57.60
33901;DHT22;20193;49.810;6.418;2022-09-21T14:30:03;18.60;58.10
33901;DHT22;20193;49.810;6.418;2022-09-21T14:32:40;18.60;58.60
33901;DHT22;20193;49.810;6.418;2022-09-21T14:35:17;18.60;59.60
33901;DHT22;20193;49.810;6.418;2022-09-21T14:37:59;18.60;59.40
33901;DHT22;20193;49.810;6.418;2022-09-21T14:40:31;18.70;58.00
33901;DHT22;20193;49.810;6.418;2022-09-21T14:43:00;18.70;57.30
33901;DHT22;20193;49.810;6.418;2022-09-21T14:45:51;18.60;56.20
33901;DHT22;20193;49.810;6.418;2022-09-21T14:59:44;18.80;61.30
33901;DHT22;20193;49.810;6.418;2022-09-21T15:02:28;18.90;61.30
33901;DHT22;20193;49.810;6.418;2022-09-21T15:10:36;19.00;61.30
33901;DHT22;20193;49.810;6.418;2022-09-21T15:16:23;19.00;60.80
33901;DHT22;20193;49.810;6.418;2022-09-21T15:18:59;19.10;61.20
33901;DHT22;20193;49.810;6.418;2022-09-21T15:21:29;19.20;60.40
33901;DHT22;20193;49.810;6.418;2022-09-21T15:23:57;19.20;60.80
33901;DHT22;20193;49.810;6.418;2022-09-21T15:26:28;19.20;62.60
33901;DHT22;20193;49.810;6.418;2022-09-21T15:29:05;19.30;62.70
33901;DHT22;20193;49.810;6.418;2022-09-21T15:31:34;19.20;62.10
33901;DHT22;20193;49.810;6.418;2022-09-21T15:34:00;19.20;62.70
33901;DHT22;20193;49.810;6.418;2022-09-21T15:36:29;19.20;62.50
33901;DHT22;20193;49.810;6.418;2022-09-21T15:38:55;19.20;63.00
33901;DHT22;20193;49.810;6.418;2022-09-21T15:41:43;19.20;62.50
33901;DHT22;20193;49.810;6.418;2022-09-21T15:44:22;19.00;62.70
33901;DHT22;20193;49.810;6.418;2022-09-21T15:46:53;18.90;63.30
33901;DHT22;20193;49.810;6.418;2022-09-21T15:49:27;18.80;63.30
33901;DHT22;20193;49.810;6.418;2022-09-21T15:52:15;18.70;63.70
33901;DHT22;20193;49.810;6.418;2022-09-21T15:54:45;18.60;63.70
33901;DHT22;20193;49.810;6.418;2022-09-21T15:59:51;18.50;64.00
33901;DHT22;20193;49.810;6.418;2022-09-21T16:02:21;18.40;64.20
33901;DHT22;20193;49.810;6.418;2022-09-21T16:04:48;18.30;64.50
33901;DHT22;20193;49.810;6.418;2022-09-21T16:07:30;18.20;64.80
33901;DHT22;20193;49.810;6.418;2022-09-21T16:09:56;18.20;64.90
33901;DHT22;20193;49.810;6.418;2022-09-21T16:15:22;18.10;64.70
33901;DHT22;20193;49.810;6.418;2022-09-21T16:17:56;18.10;65.20
33901;DHT22;20193;49.810;6.418;2022-09-21T16:20:24;18.00;64.90
33901;DHT22;20193;49.810;6.418;2022-09-21T16:22:52;18.00;64.90
33901;DHT22;20193;49.810;6.418;2022-09-21T16:25:35;18.00;64.60
33901;DHT22;20193;49.810;6.418;2022-09-21T16:33:34;18.00;66.40
33901;DHT22;20193;49.810;6.418;2022-09-21T16:38:50;18.00;67.20
33901;DHT22;20193;49.810;6.418;2022-09-21T16:41:18;18.00;66.70
33901;DHT22;20193;49.810;6.418;2022-09-21T16:43:44;18.00;67.50
33901;DHT22;20193;49.810;6.418;2022-09-21T16:46:11;18.00;68.30
33901;DHT22;20193;49.810;6.418;2022-09-21T16:48:37;18.00;68.80
33901;DHT22;20193;49.810;6.418;2022-09-21T16:51:08;18.00;69.00
33901;DHT22;20193;49.810;6.418;2022-09-21T16:53:35;17.90;69.20
33901;DHT22;20193;49.810;6.418;2022-09-21T16:56:01;17.90;69.60
33901;DHT22;20193;49.810;6.418;2022-09-21T16:58:27;17.90;70.00
33901;DHT22;20193;49.810;6.418;2022-09-21T17:00:53;17.80;70.10
33901;DHT22;20193;49.810;6.418;2022-09-21T17:03:19;17.70;70.90
33901;DHT22;20193;49.810;6.418;2022-09-21T17:05:45;17.60;69.60
33901;DHT22;20193;49.810;6.418;2022-09-21T17:08:11;17.50;69.00
33901;DHT22;20193;49.810;6.418;2022-09-21T17:10:42;17.40;69.20
33901;DHT22;20193;49.810;6.418;2022-09-21T17:13:08;17.30;70.20
33901;DHT22;20193;49.810;6.418;2022-09-21T17:15:35;17.30;71.40
33901;DHT22;20193;49.810;6.418;2022-09-21T17:18:03;17.20;72.90
33901;DHT22;20193;49.810;6.418;2022-09-21T17:20:41;17.10;73.40
33901;DHT22;20193;49.810;6.418;2022-09-21T17:23:07;17.00;74.00
33901;DHT22;20193;49.810;6.418;2022-09-21T17:25:34;16.80;74.10
33901;DHT22;20193;49.810;6.418;2022-09-21T17:28:02;16.70;74.40
33901;DHT22;20193;49.810;6.418;2022-09-21T17:30:28;16.60;75.00
33901;DHT22;20193;49.810;6.418;2022-09-21T17:32:54;16.50;75.10
33901;DHT22;20193;49.810;6.418;2022-09-21T17:35:31;16.30;75.20
33901;DHT22;20193;49.810;6.418;2022-09-21T17:37:57;16.20;75.90
33901;DHT22;20193;49.810;6.418;2022-09-21T17:40:23;16.00;76.20
33901;DHT22;20193;49.810;6.418;2022-09-21T17:42:50;15.90;76.80
33901;DHT22;20193;49.810;6.418;2022-09-21T17:48:02;15.60;77.60
33901;DHT22;20193;49.810;6.418;2022-09-21T17:50:28;15.50;77.60
33901;DHT22;20193;49.810;6.418;2022-09-21T17:52:55;15.30;77.90
33901;DHT22;20193;49.810;6.418;2022-09-21T17:55:48;15.20;78.10
33901;DHT22;20193;49.810;6.418;2022-09-21T18:01:25;14.90;78.70
33901;DHT22;20193;49.810;6.418;2022-09-21T18:03:53;14.80;78.90
33901;DHT22;20193;49.810;6.418;2022-09-21T18:06:19;14.70;79.30
33901;DHT22;20193;49.810;6.418;2022-09-21T18:08:45;14.60;80.30
33901;DHT22;20193;49.810;6.418;2022-09-21T18:17:35;14.10;80.90
33901;DHT22;20193;49.810;6.418;2022-09-21T18:20:32;14.00;80.90
33901;DHT22;20193;49.810;6.418;2022-09-21T18:23:36;13.90;81.10
33901;DHT22;20193;49.810;6.418;2022-09-21T18:26:08;13.70;81.40
33901;DHT22;20193;49.810;6.418;2022-09-21T18:28:53;13.60;81.70
33901;DHT22;20193;49.810;6.418;2022-09-21T18:31:46;13.50;81.90
33901;DHT22;20193;49.810;6.418;2022-09-21T18:43:02;13.10;82.80
33901;DHT22;20193;49.810;6.418;2022-09-21T18:45:46;13.00;83.00
33901;DHT22;20193;49.810;6.418;2022-09-21T18:53:49;12.60;83.40
33901;DHT22;20193;49.810;6.418;2022-09-21T18:56:17;12.50;83.80
33901;DHT22;20193;49.810;6.418;2022-09-21T18:58:43;12.40;83.90
33901;DHT22;20193;49.810;6.418;2022-09-21T19:01:12;12.30;84.10
33901;DHT22;20193;49.810;6.418;2022-09-21T19:03:39;12.30;84.40
33901;DHT22;20193;49.810;6.418;2022-09-21T19:06:53;12.20;84.60
33901;DHT22;20193;49.810;6.418;2022-09-21T19:09:11;12.10;84.80
33901;DHT22;20193;49.810;6.418;2022-09-21T19:15:01;11.90;85.30
33901;DHT22;20193;49.810;6.418;2022-09-21T19:25:55;11.60;86.00
33901;DHT22;20193;49.810;6.418;2022-09-21T19:31:15;11.40;86.20
33901;DHT22;20193;49.810;6.418;2022-09-21T19:33:43;11.40;86.50
33901;DHT22;20193;49.810;6.418;2022-09-21T19:36:10;11.30;86.70
33901;DHT22;20193;49.810;6.418;2022-09-21T19:38:36;11.20;86.80
33901;DHT22;20193;49.810;6.418;2022-09-21T19:41:22;11.10;86.90
33901;DHT22;20193;49.810;6.418;2022-09-21T19:49:31;10.90;87.30
33901;DHT22;20193;49.810;6.418;2022-09-21T19:52:02;10.90;87.50
33901;DHT22;20193;49.810;6.418;2022-09-21T19:54:29;10.80;87.50
33901;DHT22;20193;49.810;6.418;2022-09-21T19:57:19;10.70;87.70
33901;DHT22;20193;49.810;6.418;2022-09-21T20:00:06;10.60;87.70
33901;DHT22;20193;49.810;6.418;2022-09-21T20:05:41;10.50;88.20
33901;DHT22;20193;49.810;6.418;2022-09-21T20:08:38;10.40;88.30
33901;DHT22;20193;49.810;6.418;2022-09-21T20:16:51;10.30;89.10
33901;DHT22;20193;49.810;6.418;2022-09-21T20:22:03;10.10;89.30
33901;DHT22;20193;49.810;6.418;2022-09-21T20:24:53;10.10;89.40
33901;DHT22;20193;49.810;6.418;2022-09-21T20:27:25;10.00;89.60
33901;DHT22;20193;49.810;6.418;2022-09-21T20:29:52;10.00;89.80
33901;DHT22;20193;49.810;6.418;2022-09-21T20:32:19;9.90;90.40
33901;DHT22;20193;49.810;6.418;2022-09-21T20:34:45;9.90;90.50